createdAt,value
2019-05-22T00:00:31.793Z,14.33
2019-05-22T00:05:29.705Z,15.57
2019-05-22T00:10:26.102Z,18.63
2019-05-22T00:15:21.510Z,19.53
2019-05-22T00:20:15.740Z,21.03
2019-05-22T00:25:14.643Z,20.40
2019-05-22T00:30:11.118Z,21.90
2019-05-22T00:35:08.295Z,27.03
2019-05-22T00:40:04.415Z,26.07
2019-05-22T00:44:58.942Z,26.97
2019-05-22T00:49:54.739Z,24.07
2019-05-22T00:55:06.712Z,27.33
2019-05-22T01:00:20.036Z,25.73
2019-05-22T01:05:15.505Z,26.77
2019-05-22T01:10:11.631Z,26.50
2019-05-22T01:15:08.471Z,26.03
2019-05-22T01:20:05.572Z,25.73
2019-05-22T01:25:00.339Z,24.27
2019-05-22T01:29:55.506Z,27.30
2019-05-22T01:34:50.536Z,27.13
2019-05-22T01:40:04.095Z,26.97
2019-05-22T01:45:05.611Z,25.70
2019-05-22T01:49:55.732Z,24.27
2019-05-22T01:54:52.154Z,25.67
2019-05-22T01:59:47.041Z,23.63
2019-05-22T02:04:42.194Z,26.57
2019-05-22T02:09:40.348Z,25.33
2019-05-22T02:14:34.436Z,22.17
2019-05-22T02:19:30.733Z,21.93
2019-05-22T02:24:24.463Z,21.73
2019-05-22T02:29:20.685Z,24.00
2019-05-22T02:34:14.584Z,23.20
2019-05-22T02:39:23.574Z,22.80
2019-05-22T02:44:18.643Z,28.30
2019-05-22T02:49:14.084Z,24.40
2019-05-22T02:54:09.587Z,21.27
2019-05-22T02:59:08.282Z,19.27
2019-05-22T03:04:04.641Z,20.47
2019-05-22T03:09:25.620Z,19.80
2019-05-22T03:14:21.535Z,21.00
2019-05-22T03:19:25.832Z,19.70
2019-05-22T03:24:20.600Z,21.87
2019-05-22T03:29:16.839Z,18.00
2019-05-22T03:34:12.104Z,17.60
2019-05-22T03:39:07.334Z,19.50
2019-05-22T03:44:03.025Z,19.57
2019-05-22T03:48:57.013Z,15.70
2019-05-22T03:53:51.134Z,15.70
2019-05-22T03:58:45.163Z,14.60
2019-05-22T04:03:39.741Z,14.83
2019-05-22T04:08:34.196Z,14.67
2019-05-22T04:13:29.009Z,13.97
2019-05-22T04:18:24.036Z,16.83
2019-05-22T04:23:18.217Z,16.10
2019-05-22T04:28:12.321Z,15.80
2019-05-22T04:33:06.316Z,16.77
2019-05-22T04:38:00.414Z,16.93
2019-05-22T04:42:54.090Z,15.80
2019-05-22T04:47:58.300Z,18.43
2019-05-22T04:52:53.179Z,15.73
2019-05-22T04:57:47.828Z,16.60
2019-05-22T05:02:41.618Z,17.50
2019-05-22T05:07:36.021Z,14.23
2019-05-22T05:12:30.125Z,15.13
2019-05-22T05:17:24.019Z,14.80
2019-05-22T05:22:31.333Z,17.37
2019-05-22T05:27:25.096Z,11.47
2019-05-22T05:32:19.701Z,12.47
2019-05-22T05:37:15.804Z,13.10
2019-05-22T05:42:09.441Z,12.00
2019-05-22T05:47:03.287Z,11.50
2019-05-22T05:51:57.551Z,12.73
2019-05-22T05:56:51.705Z,11.23
2019-05-22T06:01:48.769Z,14.53
2019-05-22T06:07:21.257Z,10.67
2019-05-22T06:12:15.376Z,12.17
2019-05-22T06:18:14.363Z,14.37
2019-05-22T06:24:06.056Z,13.10
2019-05-22T06:29:00.303Z,11.40
2019-05-22T06:33:54.325Z,11.57
2019-05-22T06:38:58.700Z,12.27
2019-05-22T06:44:42.856Z,10.90
2019-05-22T06:49:48.574Z,10.83
2019-05-22T06:54:42.567Z,11.20
2019-05-22T06:59:36.531Z,10.53
2019-05-22T07:04:30.466Z,10.67
2019-05-22T07:09:25.150Z,12.97
2019-05-22T07:14:18.972Z,11.77
2019-05-22T07:19:12.965Z,11.33
2019-05-22T07:24:07.370Z,12.33
2019-05-22T07:29:05.055Z,10.17
2019-05-22T07:33:57.096Z,12.17
2019-05-22T07:38:50.877Z,11.17
2019-05-22T07:43:44.335Z,11.30
2019-05-22T07:48:37.807Z,10.53
2019-05-22T07:53:31.497Z,11.53
2019-05-22T07:58:27.764Z,9.10
2019-05-22T08:03:22.945Z,8.13
2019-05-22T08:08:18.891Z,9.83
2019-05-22T08:13:13.071Z,11.00
2019-05-22T08:18:10.774Z,12.23
2019-05-22T08:23:06.595Z,8.33
2019-05-22T08:28:01.285Z,7.97
2019-05-22T08:32:57.999Z,10.60
2019-05-22T08:37:52.839Z,9.43
2019-05-22T08:42:48.515Z,8.93
2019-05-22T08:47:42.612Z,11.60
2019-05-22T08:52:37.686Z,12.47
2019-05-22T08:57:31.744Z,12.37
2019-05-22T09:02:25.706Z,10.83
2019-05-22T09:07:20.619Z,10.63
2019-05-22T09:12:16.141Z,10.20
2019-05-22T09:17:11.107Z,12.30
2019-05-22T09:22:06.591Z,11.43
2019-05-22T09:27:05.263Z,9.40
2019-05-22T09:31:59.027Z,10.00
2019-05-22T09:36:53.078Z,11.37
2019-05-22T09:41:49.263Z,11.03
2019-05-22T09:46:42.864Z,9.00
2019-05-22T09:51:36.423Z,9.97
2019-05-22T09:56:30.736Z,10.47
2019-05-22T10:01:24.044Z,10.27
2019-05-22T10:06:21.491Z,9.63
2019-05-22T10:11:14.514Z,8.60
2019-05-22T10:16:08.207Z,8.87
2019-05-22T10:21:01.950Z,10.00
2019-05-22T10:25:55.597Z,10.43
2019-05-22T10:30:49.143Z,11.67
2019-05-22T10:35:43.032Z,9.97
2019-05-22T10:40:38.352Z,11.33
2019-05-22T10:45:32.225Z,10.37
2019-05-22T10:50:25.725Z,9.80
2019-05-22T10:55:20.018Z,9.63
2019-05-22T11:00:15.503Z,10.37
2019-05-22T11:05:09.830Z,9.43
2019-05-22T11:10:04.486Z,12.43
2019-05-22T11:14:58.130Z,10.83
2019-05-22T11:19:51.813Z,10.83
2019-05-22T11:24:45.499Z,10.90
2019-05-22T11:29:42.477Z,10.50
2019-05-22T11:34:37.102Z,10.63
2019-05-22T11:39:39.321Z,12.23
2019-05-22T11:44:28.349Z,11.67
2019-05-22T11:49:22.938Z,10.73
2019-05-22T11:54:16.968Z,10.93
2019-05-22T11:59:12.555Z,11.83
2019-05-22T12:04:10.837Z,11.00
2019-05-22T12:09:08.411Z,11.37
2019-05-22T12:14:02.803Z,10.37
2019-05-22T12:18:59.305Z,10.67
2019-05-22T12:23:53.757Z,12.60
2019-05-22T12:28:47.366Z,11.80
2019-05-22T12:33:42.409Z,11.70
2019-05-22T12:38:36.081Z,11.10
2019-05-22T12:43:30.610Z,10.23
2019-05-22T12:48:25.186Z,9.80
2019-05-22T12:53:21.194Z,10.57
2019-05-22T12:58:14.956Z,9.90
2019-05-22T13:03:09.307Z,9.80
2019-05-22T13:08:03.622Z,10.80
2019-05-22T13:12:57.240Z,10.80
2019-05-22T13:17:51.605Z,11.67
2019-05-22T13:22:47.894Z,10.90
2019-05-22T13:27:41.434Z,9.53
2019-05-22T13:32:37.244Z,9.20
2019-05-22T13:37:31.198Z,10.27
2019-05-22T13:42:25.938Z,11.13
2019-05-22T13:47:21.304Z,9.07
2019-05-22T13:52:15.812Z,9.60
2019-05-22T13:57:10.487Z,8.83
2019-05-22T14:02:03.950Z,9.93
2019-05-22T14:06:57.450Z,9.83
2019-05-22T14:11:51.559Z,9.67
2019-05-22T14:16:48.970Z,9.43
2019-05-22T14:21:40.057Z,11.77
2019-05-22T14:26:33.660Z,9.07
2019-05-22T14:31:27.267Z,8.07
2019-05-22T14:36:20.752Z,7.43
2019-05-22T14:41:15.524Z,9.27
2019-05-22T14:46:09.217Z,8.70
2019-05-22T14:51:03.301Z,8.10
2019-05-22T14:55:58.771Z,8.43
2019-05-22T15:00:53.407Z,7.03
2019-05-22T15:05:47.117Z,9.23
2019-05-22T15:10:40.824Z,7.30
2019-05-22T15:15:35.284Z,10.20
2019-05-22T15:20:36.737Z,8.53
2019-05-22T15:25:30.819Z,9.83
2019-05-22T15:30:24.700Z,8.50
2019-05-22T15:35:18.894Z,8.57
2019-05-22T15:40:13.040Z,9.63
2019-05-22T15:45:13.464Z,8.67
2019-05-22T15:50:08.880Z,10.07
2019-05-22T15:55:02.608Z,8.70
2019-05-22T15:59:56.591Z,10.03
2019-05-22T16:04:51.029Z,10.53
2019-05-22T16:09:46.970Z,9.53
2019-05-22T16:14:40.915Z,9.00
2019-05-22T16:19:35.539Z,9.77
2019-05-22T16:24:29.123Z,8.90
2019-05-22T16:29:24.148Z,9.30
2019-05-22T16:34:17.936Z,10.37
2019-05-22T16:39:13.596Z,7.50
2019-05-22T16:44:07.177Z,8.80
2019-05-22T16:49:00.719Z,9.87
2019-05-22T16:54:00.567Z,9.43
2019-05-22T16:58:55.275Z,9.13
2019-05-22T17:03:53.720Z,8.73
2019-05-22T17:08:47.404Z,9.90
2019-05-22T17:13:43.375Z,9.33
2019-05-22T17:18:47.705Z,12.97
2019-05-22T17:23:33.833Z,11.23
2019-05-22T17:28:28.791Z,7.13
2019-05-22T17:33:22.751Z,8.30
2019-05-22T17:38:19.012Z,8.23
2019-05-22T17:43:13.806Z,8.93
2019-05-22T17:48:09.244Z,9.90
2019-05-22T17:53:04.107Z,7.90
2019-05-22T17:57:59.467Z,12.93
2019-05-22T18:02:53.191Z,10.97
2019-05-22T18:07:48.696Z,8.73
2019-05-22T18:12:42.422Z,8.43
2019-05-22T18:17:37.877Z,7.60
2019-05-22T18:22:32.452Z,7.53
2019-05-22T18:27:27.027Z,8.63
2019-05-22T18:32:21.055Z,10.93
2019-05-22T18:37:15.239Z,9.40
2019-05-22T18:42:08.767Z,9.03
2019-05-22T18:47:02.847Z,9.80
2019-05-22T18:51:56.604Z,13.57
2019-05-22T18:56:50.398Z,9.97
2019-05-22T19:01:44.095Z,10.83
2019-05-22T19:06:38.898Z,10.47
2019-05-22T19:11:34.292Z,9.50
2019-05-22T19:16:28.173Z,11.40
2019-05-22T19:21:21.953Z,11.93
2019-05-22T19:26:15.677Z,12.07
2019-05-22T19:31:09.547Z,10.03
2019-05-22T19:36:03.661Z,10.17
2019-05-22T19:40:57.843Z,12.17
2019-05-22T19:45:53.505Z,8.73
2019-05-22T19:50:48.562Z,14.03
2019-05-22T19:55:45.175Z,11.83
2019-05-22T20:00:40.048Z,9.23
2019-05-22T20:05:34.857Z,10.30
2019-05-22T20:10:28.687Z,12.27
2019-05-22T20:15:22.495Z,11.40
2019-05-22T20:20:19.128Z,10.47
2019-05-22T20:25:14.877Z,10.83
2019-05-22T20:30:11.695Z,10.37
2019-05-22T20:35:06.204Z,10.90
2019-05-22T20:40:00.180Z,11.10
2019-05-22T20:44:53.782Z,10.07
2019-05-22T20:49:47.435Z,11.50
2019-05-22T20:54:46.524Z,9.77
2019-05-22T20:59:43.442Z,10.63
2019-05-22T21:04:36.932Z,10.37
2019-05-22T21:09:36.250Z,13.57
2019-05-22T21:14:29.606Z,9.67
2019-05-22T21:19:24.584Z,10.90
2019-05-22T21:24:19.441Z,11.57
2019-05-22T21:29:12.830Z,11.43
2019-05-22T21:34:06.722Z,14.60
2019-05-22T21:39:00.676Z,12.17
2019-05-22T21:43:55.301Z,13.37
2019-05-22T21:48:52.901Z,15.23
2019-05-22T21:53:46.965Z,13.03
2019-05-22T21:58:41.053Z,14.93
2019-05-22T22:03:37.348Z,15.03
2019-05-22T22:08:31.317Z,15.13
2019-05-22T22:13:26.760Z,14.37
2019-05-22T22:18:24.745Z,16.43
2019-05-22T22:23:18.887Z,13.70
2019-05-22T22:28:15.188Z,16.57
2019-05-22T22:33:11.649Z,16.33
2019-05-22T22:38:06.515Z,16.37
2019-05-22T22:43:02.844Z,14.50
2019-05-22T22:47:58.040Z,14.50
2019-05-22T22:52:51.907Z,14.97
2019-05-22T22:57:47.943Z,15.30
2019-05-22T23:02:43.324Z,14.80
2019-05-22T23:07:37.249Z,15.90
2019-05-22T23:12:31.287Z,15.40
2019-05-22T23:17:25.228Z,14.70
2019-05-22T23:22:23.833Z,18.53
2019-05-22T23:27:19.595Z,16.47
2019-05-22T23:32:17.516Z,14.40
2019-05-22T23:37:14.902Z,15.47
2019-05-22T23:42:15.485Z,14.17
2019-05-22T23:47:10.991Z,17.10
2019-05-22T23:52:06.254Z,17.37
2019-05-22T23:57:01.278Z,15.23
